createdAt,value
2023-05-15T00:01:38.306Z,16.93
2023-05-15T00:04:07.285Z,16.90
2023-05-15T00:06:38.602Z,17.77
2023-05-15T00:09:09.195Z,14.93
2023-05-15T00:11:42.334Z,17.27
2023-05-15T00:14:11.670Z,14.38
2023-05-15T00:16:44.095Z,13.25
2023-05-15T00:19:13.581Z,17.05
2023-05-15T00:21:43.033Z,14.85
2023-05-15T00:24:12.350Z,14.23
2023-05-15T00:26:41.698Z,18.20
2023-05-15T00:29:11.742Z,28.23
2023-05-15T00:31:46.464Z,26.62
2023-05-15T00:34:15.454Z,33.08
2023-05-15T00:36:46.859Z,38.58
2023-05-15T00:39:16.820Z,36.40
2023-05-15T00:41:47.268Z,39.65
2023-05-15T00:44:19.044Z,46.25
2023-05-15T00:46:47.974Z,34.65
2023-05-15T00:49:17.108Z,41.00
2023-05-15T00:51:46.251Z,41.23
2023-05-15T00:54:16.364Z,39.33
2023-05-15T00:56:45.990Z,36.75
2023-05-15T00:59:15.394Z,40.55
2023-05-15T01:01:44.987Z,41.10
2023-05-15T01:04:13.851Z,35.58
2023-05-15T01:06:43.435Z,27.95
2023-05-15T01:09:12.518Z,28.80
2023-05-15T01:11:42.278Z,35.40
2023-05-15T01:14:13.402Z,30.88
2023-05-15T01:16:42.861Z,25.92
2023-05-15T01:19:12.035Z,29.67
2023-05-15T01:21:55.847Z,29.18
2023-05-15T01:25:05.921Z,46.77
2023-05-15T01:27:42.008Z,43.10
2023-05-15T01:30:25.135Z,50.67
2023-05-15T01:33:17.151Z,41.02
2023-05-15T01:35:51.456Z,38.63
2023-05-15T01:38:39.013Z,38.13
2023-05-15T01:41:31.643Z,33.58
2023-05-15T01:44:10.689Z,33.55
2023-05-15T01:46:42.796Z,29.65
2023-05-15T01:49:13.715Z,22.32
2023-05-15T01:51:44.955Z,25.50
2023-05-15T01:54:14.682Z,29.52
2023-05-15T01:56:45.028Z,33.10
2023-05-15T01:59:14.659Z,37.65
2023-05-15T02:01:43.852Z,30.77
2023-05-15T02:04:13.438Z,37.42
2023-05-15T02:06:42.421Z,39.67
2023-05-15T02:09:12.351Z,44.58
2023-05-15T02:11:43.069Z,35.95
2023-05-15T02:14:12.240Z,41.05
2023-05-15T02:16:41.518Z,36.25
2023-05-15T02:19:10.973Z,36.60
2023-05-15T02:21:40.117Z,34.30
2023-05-15T02:24:09.346Z,33.02
2023-05-15T02:27:13.366Z,31.17
2023-05-15T02:30:11.801Z,28.40
2023-05-15T02:32:51.884Z,21.27
2023-05-15T02:35:32.852Z,26.95
2023-05-15T02:38:05.751Z,21.60
2023-05-15T02:40:36.620Z,19.32
2023-05-15T02:43:07.940Z,22.27
2023-05-15T02:45:38.119Z,16.25
2023-05-15T02:48:09.394Z,17.77
2023-05-15T02:50:38.894Z,19.37
2023-05-15T02:53:09.677Z,20.23
2023-05-15T02:55:38.771Z,17.55
2023-05-15T02:58:07.712Z,28.45
2023-05-15T03:00:37.000Z,34.70
2023-05-15T03:03:07.433Z,41.90
2023-05-15T03:05:37.011Z,34.85
2023-05-15T03:08:08.447Z,43.33
2023-05-15T03:10:37.655Z,39.65
2023-05-15T03:13:06.826Z,43.85
2023-05-15T03:15:35.936Z,43.73
2023-05-15T03:18:05.484Z,40.65
2023-05-15T03:20:34.435Z,41.50
2023-05-15T03:23:03.590Z,44.95
2023-05-15T03:25:32.844Z,36.95
2023-05-15T03:28:01.918Z,34.60
2023-05-15T03:30:31.140Z,39.45
2023-05-15T03:33:02.653Z,36.98
2023-05-15T03:35:32.351Z,34.43
2023-05-15T03:38:01.752Z,42.20
2023-05-15T03:40:30.977Z,34.55
2023-05-15T03:43:00.626Z,39.73
2023-05-15T03:45:30.090Z,36.55
2023-05-15T03:47:58.988Z,34.35
2023-05-15T03:50:29.596Z,32.58
2023-05-15T03:53:00.348Z,30.02
2023-05-15T03:55:30.528Z,36.40
2023-05-15T03:57:59.704Z,27.07
2023-05-15T04:00:31.634Z,25.82
2023-05-15T04:03:01.540Z,30.50
2023-05-15T04:05:31.445Z,27.05
2023-05-15T04:08:01.408Z,25.85
2023-05-15T04:10:32.688Z,32.88
2023-05-15T04:13:01.986Z,24.82
2023-05-15T04:15:31.061Z,24.30
2023-05-15T04:18:00.041Z,28.32
2023-05-15T04:20:29.489Z,25.43
2023-05-15T04:23:00.148Z,22.87
2023-05-15T04:25:29.664Z,28.73
2023-05-15T04:27:59.043Z,25.40
2023-05-15T04:30:28.006Z,30.15
2023-05-15T04:32:58.375Z,26.30
2023-05-15T04:35:27.879Z,23.50
2023-05-15T04:37:57.231Z,25.35
2023-05-15T04:40:26.460Z,36.10
2023-05-15T04:42:56.908Z,23.30
2023-05-15T04:45:26.858Z,24.40
2023-05-15T04:47:55.891Z,25.90
2023-05-15T04:50:25.371Z,26.27
2023-05-15T04:52:54.793Z,25.68
2023-05-15T04:55:24.227Z,28.27
2023-05-15T04:57:55.427Z,40.65
2023-05-15T05:00:24.749Z,37.03
2023-05-15T05:02:55.363Z,29.10
2023-05-15T05:05:24.314Z,26.97
2023-05-15T05:07:53.635Z,31.37
2023-05-15T05:10:23.149Z,24.27
2023-05-15T05:12:54.136Z,30.77
2023-05-15T05:15:24.775Z,33.88
2023-05-15T05:17:54.287Z,31.23
2023-05-15T05:20:23.600Z,34.05
2023-05-15T05:22:53.543Z,30.57
2023-05-15T05:25:24.092Z,29.85
2023-05-15T05:27:52.985Z,30.82
2023-05-15T05:30:23.595Z,35.48
2023-05-15T05:32:52.997Z,30.05
2023-05-15T05:35:22.340Z,28.40
2023-05-15T05:37:51.586Z,23.80
2023-05-15T05:40:20.800Z,20.50
2023-05-15T05:42:50.310Z,19.10
2023-05-15T05:45:19.921Z,17.37
2023-05-15T05:47:49.515Z,20.37
2023-05-15T05:50:18.744Z,17.05
2023-05-15T05:52:47.878Z,15.88
2023-05-15T05:55:16.874Z,13.60
2023-05-15T05:57:46.064Z,10.28
2023-05-15T06:00:15.849Z,10.78
2023-05-15T06:02:45.263Z,9.78
2023-05-15T06:05:14.609Z,10.78
2023-05-15T06:07:44.193Z,8.65
2023-05-15T06:10:13.704Z,13.88
2023-05-15T06:12:43.642Z,10.23
2023-05-15T06:15:14.624Z,13.08
2023-05-15T06:17:44.556Z,6.75
2023-05-15T06:20:15.501Z,9.53
2023-05-15T06:22:45.079Z,10.60
2023-05-15T06:25:14.745Z,16.82
2023-05-15T06:27:44.413Z,7.80
2023-05-15T06:30:14.505Z,11.78
2023-05-15T06:32:44.555Z,18.50
2023-05-15T06:35:14.689Z,9.08
2023-05-15T06:37:44.166Z,9.35
2023-05-15T06:40:13.743Z,13.35
2023-05-15T06:42:43.025Z,8.50
2023-05-15T06:45:12.815Z,10.20
2023-05-15T06:47:41.865Z,14.23
2023-05-15T06:50:11.318Z,10.13
2023-05-15T06:52:40.912Z,11.35
2023-05-15T06:55:10.620Z,7.72
2023-05-15T06:57:39.983Z,9.78
2023-05-15T07:00:10.595Z,9.78
2023-05-15T07:02:40.478Z,14.20
2023-05-15T07:05:11.283Z,15.30
2023-05-15T07:07:40.938Z,6.78
2023-05-15T07:10:10.236Z,7.65
2023-05-15T07:12:40.302Z,14.03
2023-05-15T07:15:10.099Z,11.95
2023-05-15T07:17:40.339Z,20.05
2023-05-15T07:20:10.620Z,12.65
2023-05-15T07:22:51.883Z,8.33
2023-05-15T07:25:11.214Z,12.90
2023-05-15T07:27:40.926Z,12.88
2023-05-15T07:30:11.666Z,7.20
2023-05-15T07:32:42.090Z,9.75
2023-05-15T07:35:12.195Z,6.95
2023-05-15T07:37:42.162Z,7.28
2023-05-15T07:40:12.334Z,6.72
2023-05-15T07:42:44.812Z,5.80
2023-05-15T07:45:14.843Z,7.50
2023-05-15T07:47:47.430Z,10.25
2023-05-15T07:50:17.262Z,12.73
2023-05-15T07:52:46.301Z,6.62
2023-05-15T07:55:14.869Z,10.60
2023-05-15T07:57:45.420Z,7.80
2023-05-15T08:00:17.196Z,4.92
2023-05-15T08:02:47.142Z,8.73
2023-05-15T08:05:17.025Z,10.63
2023-05-15T08:07:46.498Z,9.48
2023-05-15T08:10:15.518Z,7.30
2023-05-15T08:12:47.250Z,13.13
2023-05-15T08:15:16.553Z,7.78
2023-05-15T08:17:45.776Z,9.28
2023-05-15T08:20:17.403Z,5.95
2023-05-15T08:22:47.060Z,8.78
2023-05-15T08:25:16.945Z,6.67
2023-05-15T08:27:46.693Z,9.65
2023-05-15T08:30:19.821Z,8.53
2023-05-15T08:32:49.422Z,7.17
2023-05-15T08:35:18.667Z,7.22
2023-05-15T08:37:48.682Z,12.33
2023-05-15T08:40:23.422Z,7.90
2023-05-15T08:42:53.338Z,16.27
2023-05-15T08:45:23.799Z,6.12
2023-05-15T08:47:53.378Z,6.80
2023-05-15T08:50:22.635Z,4.15
2023-05-15T08:52:52.230Z,7.58
2023-05-15T08:55:23.504Z,3.83
2023-05-15T08:57:53.521Z,6.97
2023-05-15T09:00:22.777Z,10.65
2023-05-15T09:02:54.458Z,6.50
2023-05-15T09:05:24.950Z,10.18
2023-05-15T09:07:54.422Z,6.62
2023-05-15T09:10:23.986Z,5.50
2023-05-15T09:12:54.262Z,14.73
2023-05-15T09:15:24.989Z,6.20
2023-05-15T09:17:54.868Z,4.70
2023-05-15T09:20:31.850Z,9.23
2023-05-15T09:23:03.881Z,5.60
2023-05-15T09:25:42.005Z,9.48
2023-05-15T09:28:28.428Z,5.40
2023-05-15T09:31:03.190Z,6.25
2023-05-15T09:33:37.540Z,5.35
2023-05-15T09:36:08.471Z,6.30
2023-05-15T09:38:43.208Z,8.53
2023-05-15T09:41:12.051Z,9.28
2023-05-15T09:43:41.954Z,5.22
2023-05-15T09:46:13.093Z,5.97
2023-05-15T09:48:42.614Z,8.68
2023-05-15T09:51:19.454Z,3.95
2023-05-15T09:53:52.932Z,9.00
2023-05-15T09:56:22.261Z,4.53
2023-05-15T09:59:01.204Z,5.35
2023-05-15T10:01:31.780Z,6.00
2023-05-15T10:04:02.190Z,4.25
2023-05-15T10:06:37.949Z,3.92
2023-05-15T10:11:40.507Z,8.33
2023-05-15T10:14:12.397Z,11.73
2023-05-15T10:16:42.148Z,4.90
2023-05-15T10:19:12.522Z,4.55
2023-05-15T10:21:42.654Z,7.22
2023-05-15T10:24:13.083Z,5.90
2023-05-15T10:26:42.855Z,6.05
2023-05-15T10:29:13.366Z,7.97
2023-05-15T10:31:43.204Z,4.72
2023-05-15T10:34:13.440Z,6.85
2023-05-15T10:36:43.755Z,4.83
2023-05-15T10:39:13.730Z,7.90
2023-05-15T10:41:44.302Z,6.00
2023-05-15T10:44:12.907Z,8.48
2023-05-15T10:46:43.544Z,12.63
2023-05-15T10:49:13.267Z,14.23
2023-05-15T10:51:43.009Z,8.45
2023-05-15T10:54:12.788Z,8.55
2023-05-15T10:56:42.061Z,5.25
2023-05-15T10:59:12.156Z,9.73
2023-05-15T11:01:41.674Z,5.65
2023-05-15T11:04:15.567Z,4.72
2023-05-15T11:06:46.549Z,7.08
2023-05-15T11:09:37.521Z,7.33
2023-05-15T11:12:11.552Z,7.87
2023-05-15T11:14:56.556Z,8.68
2023-05-15T11:17:26.591Z,7.95
2023-05-15T11:19:58.047Z,5.35
2023-05-15T11:22:33.212Z,4.97
2023-05-15T11:25:05.982Z,5.10
2023-05-15T11:27:47.305Z,7.37
2023-05-15T11:30:26.519Z,9.48
2023-05-15T11:33:10.969Z,9.80
2023-05-15T11:35:48.275Z,11.45
2023-05-15T11:38:25.730Z,5.53
2023-05-15T11:41:01.772Z,7.08
2023-05-15T11:43:44.144Z,8.17
2023-05-15T11:46:23.570Z,9.43
2023-05-15T11:48:53.491Z,5.87
2023-05-15T11:51:26.439Z,6.30
2023-05-15T11:53:56.450Z,6.37
2023-05-15T11:56:29.247Z,7.97
2023-05-15T11:58:59.365Z,4.40
2023-05-15T12:01:29.770Z,5.00
2023-05-15T12:03:59.252Z,6.87
2023-05-15T12:06:28.590Z,6.50
2023-05-15T12:08:57.789Z,7.22
2023-05-15T12:11:27.136Z,6.80
2023-05-15T12:13:56.239Z,7.70
2023-05-15T12:16:28.488Z,7.67
2023-05-15T12:18:57.927Z,9.05
2023-05-15T12:21:30.153Z,6.67
2023-05-15T12:24:07.684Z,4.12
2023-05-15T12:26:32.016Z,8.28
2023-05-15T12:29:00.901Z,8.08
2023-05-15T12:31:31.168Z,10.05
2023-05-15T12:34:00.688Z,6.85
2023-05-15T12:36:31.016Z,6.83
2023-05-15T12:39:02.054Z,8.08
2023-05-15T12:41:32.138Z,12.15
2023-05-15T12:44:02.141Z,12.90
2023-05-15T12:46:31.884Z,7.05
2023-05-15T12:49:02.210Z,3.95
2023-05-15T12:51:32.139Z,4.50
2023-05-15T12:54:02.014Z,12.88
2023-05-15T12:56:31.180Z,6.78
2023-05-15T12:59:01.179Z,5.10
2023-05-15T13:01:30.509Z,4.95
2023-05-15T13:04:01.423Z,4.92
2023-05-15T13:06:44.870Z,9.50
2023-05-15T13:09:02.019Z,5.15
2023-05-15T13:11:34.696Z,5.70
2023-05-15T13:14:09.506Z,8.25
2023-05-15T13:16:38.561Z,5.62
2023-05-15T13:19:10.017Z,4.78
2023-05-15T13:21:39.798Z,4.37
2023-05-15T13:24:11.130Z,4.65
2023-05-15T13:26:41.727Z,5.72
2023-05-15T13:29:11.468Z,7.78
2023-05-15T13:31:40.892Z,5.47
2023-05-15T13:34:10.304Z,6.62
2023-05-15T13:36:39.459Z,6.12
2023-05-15T13:39:09.138Z,7.42
2023-05-15T13:41:40.033Z,4.83
2023-05-15T13:44:09.856Z,5.20
2023-05-15T13:46:39.157Z,4.25
2023-05-15T13:49:10.443Z,4.35
2023-05-15T13:51:40.930Z,7.00
2023-05-15T13:54:11.061Z,3.02
2023-05-15T13:56:40.610Z,7.70
2023-05-15T13:59:10.011Z,4.72
2023-05-15T14:01:39.927Z,7.40
2023-05-15T14:04:09.992Z,4.75
2023-05-15T14:06:41.087Z,9.23
2023-05-15T14:09:11.097Z,14.13
2023-05-15T14:11:41.202Z,5.72
2023-05-15T14:14:11.269Z,5.80
2023-05-15T14:16:41.433Z,6.92
2023-05-15T14:19:10.942Z,7.78
2023-05-15T14:21:40.517Z,7.33
2023-05-15T14:24:10.065Z,5.25
2023-05-15T14:26:39.471Z,10.63
2023-05-15T14:29:10.332Z,4.83
2023-05-15T14:31:40.806Z,8.48
2023-05-15T14:34:09.758Z,9.50
2023-05-15T14:36:39.340Z,6.90
2023-05-15T14:39:08.681Z,6.42
2023-05-15T14:41:38.181Z,4.33
2023-05-15T14:44:07.860Z,5.92
2023-05-15T14:46:38.386Z,5.67
2023-05-15T14:49:07.813Z,7.28
2023-05-15T14:51:37.613Z,10.00
2023-05-15T14:54:07.420Z,5.05
2023-05-15T14:56:38.049Z,4.45
2023-05-15T14:59:07.470Z,4.70
2023-05-15T15:01:38.104Z,6.10
2023-05-15T15:04:07.715Z,2.98
2023-05-15T15:06:37.553Z,8.80
2023-05-15T15:09:08.652Z,7.65
2023-05-15T15:11:38.573Z,6.15
2023-05-15T15:14:08.203Z,3.87
2023-05-15T15:16:38.048Z,4.67
2023-05-15T15:19:08.280Z,7.08
2023-05-15T15:21:37.983Z,5.10
2023-05-15T15:24:07.632Z,8.43
2023-05-15T15:26:37.778Z,3.25
2023-05-15T15:29:09.517Z,6.25
2023-05-15T15:31:40.088Z,12.45
2023-05-15T15:34:09.942Z,5.33
2023-05-15T15:36:40.919Z,6.00
2023-05-15T15:39:11.683Z,4.92
2023-05-15T15:41:46.957Z,5.15
2023-05-15T15:44:20.198Z,4.75
2023-05-15T15:46:49.638Z,6.58
2023-05-15T15:49:18.974Z,5.65
2023-05-15T15:51:48.803Z,7.50
2023-05-15T15:54:20.651Z,6.05
2023-05-15T15:56:50.081Z,5.92
2023-05-15T15:59:19.051Z,6.67
2023-05-15T16:01:49.168Z,7.10
2023-05-15T16:04:19.488Z,6.17
2023-05-15T16:06:48.734Z,5.25
2023-05-15T16:09:19.722Z,7.80
2023-05-15T16:11:48.857Z,7.30
2023-05-15T16:14:23.789Z,10.30
2023-05-15T16:16:53.199Z,5.08
2023-05-15T16:19:23.728Z,8.60
2023-05-15T16:21:53.454Z,6.70
2023-05-15T16:24:23.903Z,7.47
2023-05-15T16:26:55.002Z,8.33
2023-05-15T16:29:24.503Z,13.08
2023-05-15T16:31:56.270Z,8.25
2023-05-15T16:34:25.903Z,6.05
2023-05-15T16:36:55.143Z,6.53
2023-05-15T16:39:26.530Z,8.00
2023-05-15T16:41:55.835Z,8.00
2023-05-15T16:44:24.500Z,8.10
2023-05-15T16:46:53.620Z,8.13
2023-05-15T16:49:23.030Z,4.25
2023-05-15T16:51:52.687Z,5.80
2023-05-15T16:54:21.367Z,4.78
2023-05-15T16:56:52.011Z,7.22
2023-05-15T16:59:21.324Z,5.08
2023-05-15T17:01:50.798Z,5.85
2023-05-15T17:04:20.215Z,18.10
2023-05-15T17:06:51.528Z,12.05
2023-05-15T17:09:21.579Z,9.63
2023-05-15T17:11:50.597Z,5.97
2023-05-15T17:14:19.752Z,8.13
2023-05-15T17:16:49.043Z,9.80
2023-05-15T17:19:19.667Z,9.60
2023-05-15T17:21:48.982Z,7.97
2023-05-15T17:24:18.798Z,7.20
2023-05-15T17:26:48.088Z,11.35
2023-05-15T17:29:18.283Z,14.43
2023-05-15T17:31:47.559Z,9.28
2023-05-15T17:34:17.010Z,10.75
2023-05-15T17:36:46.311Z,11.25
2023-05-15T17:39:15.652Z,19.12
2023-05-15T17:41:46.679Z,7.60
2023-05-15T17:44:16.501Z,15.50
2023-05-15T17:46:45.675Z,9.15
2023-05-15T17:49:15.201Z,13.78
2023-05-15T17:51:44.609Z,7.05
2023-05-15T17:54:13.691Z,7.42
2023-05-15T17:56:45.084Z,7.35
2023-05-15T17:59:16.155Z,10.78
2023-05-15T18:01:45.236Z,8.20
2023-05-15T18:04:16.285Z,8.70
2023-05-15T18:06:47.288Z,8.15
2023-05-15T18:09:16.706Z,9.08
2023-05-15T18:11:46.495Z,6.58
2023-05-15T18:14:17.916Z,13.95
2023-05-15T18:16:46.989Z,11.12
2023-05-15T18:19:16.287Z,10.65
2023-05-15T18:21:45.318Z,10.20
2023-05-15T18:24:15.682Z,10.80
2023-05-15T18:26:46.695Z,8.08
2023-05-15T18:29:16.333Z,9.90
2023-05-15T18:31:46.108Z,12.85
2023-05-15T18:34:16.241Z,13.43
2023-05-15T18:36:49.644Z,10.23
2023-05-15T18:39:19.091Z,11.95
2023-05-15T18:41:48.469Z,9.30
2023-05-15T18:44:17.808Z,10.48
2023-05-15T18:46:48.227Z,6.75
2023-05-15T18:49:17.815Z,6.40
2023-05-15T18:51:47.013Z,8.15
2023-05-15T18:54:16.211Z,9.65
2023-05-15T18:56:46.113Z,10.63
2023-05-15T18:59:15.972Z,9.93
2023-05-15T19:01:46.321Z,8.40
2023-05-15T19:04:16.063Z,9.75
2023-05-15T19:06:46.871Z,11.08
2023-05-15T19:09:18.880Z,11.43
2023-05-15T19:11:51.848Z,8.88
2023-05-15T19:14:21.509Z,12.40
2023-05-15T19:16:51.140Z,10.72
2023-05-15T19:19:21.103Z,11.22
2023-05-15T19:21:51.884Z,13.55
2023-05-15T19:24:23.246Z,13.90
2023-05-15T19:26:52.737Z,10.10
2023-05-15T19:29:21.956Z,12.18
2023-05-15T19:31:51.109Z,12.85
2023-05-15T19:34:21.035Z,8.80
2023-05-15T19:36:50.574Z,11.53
2023-05-15T19:39:19.935Z,12.20
2023-05-15T19:41:50.302Z,10.43
2023-05-15T19:44:19.976Z,10.80
2023-05-15T19:46:49.369Z,9.78
2023-05-15T19:49:18.679Z,12.82
2023-05-15T19:51:48.475Z,10.60
2023-05-15T19:54:18.829Z,11.08
2023-05-15T19:56:49.333Z,7.78
2023-05-15T19:59:19.282Z,11.12
2023-05-15T20:01:48.489Z,8.58
2023-05-15T20:04:17.823Z,10.48
2023-05-15T20:06:47.682Z,7.85
2023-05-15T20:09:17.427Z,8.28
2023-05-15T20:11:46.431Z,14.70
2023-05-15T20:14:15.942Z,13.28
2023-05-15T20:16:45.363Z,12.23
2023-05-15T20:19:16.758Z,12.37
2023-05-15T20:21:47.841Z,9.18
2023-05-15T20:24:18.195Z,12.07
2023-05-15T20:26:47.426Z,9.53
2023-05-15T20:29:16.824Z,6.33
2023-05-15T20:31:46.510Z,9.73
2023-05-15T20:34:16.967Z,5.55
2023-05-15T20:36:47.514Z,4.42
2023-05-15T20:39:17.237Z,6.62
2023-05-15T20:41:47.233Z,6.97
2023-05-15T20:44:16.933Z,5.75
2023-05-15T20:46:46.607Z,5.30
2023-05-15T20:49:16.079Z,3.95
2023-05-15T20:51:45.424Z,5.35
2023-05-15T20:54:17.533Z,4.87
2023-05-15T20:56:48.150Z,3.62
2023-05-15T20:59:18.168Z,7.85
2023-05-15T21:01:47.952Z,8.10
2023-05-15T21:04:17.724Z,4.30
2023-05-15T21:06:47.552Z,16.85
2023-05-15T21:09:17.090Z,2.90
2023-05-15T21:11:47.288Z,5.60
2023-05-15T21:14:17.145Z,3.87
2023-05-15T21:16:46.713Z,3.20
2023-05-15T21:19:16.299Z,4.95
2023-05-15T21:21:46.152Z,6.58
2023-05-15T21:24:16.848Z,4.85
2023-05-15T21:26:46.990Z,4.85
2023-05-15T21:29:16.437Z,3.90
2023-05-15T21:31:45.628Z,6.08
2023-05-15T21:34:17.234Z,5.65
2023-05-15T21:36:47.089Z,8.08
2023-05-15T21:39:16.403Z,3.45
2023-05-15T21:41:45.569Z,3.17
2023-05-15T21:44:14.865Z,3.75
2023-05-15T21:46:45.438Z,5.10
2023-05-15T21:49:15.273Z,5.67
2023-05-15T21:51:44.923Z,4.80
2023-05-15T21:54:14.468Z,4.17
2023-05-15T21:56:43.785Z,4.50
2023-05-15T21:59:14.640Z,5.33
2023-05-15T22:01:44.943Z,5.10
2023-05-15T22:04:14.707Z,5.37
2023-05-15T22:06:44.144Z,5.45
2023-05-15T22:09:13.965Z,4.15
2023-05-15T22:11:43.396Z,4.33
2023-05-15T22:17:01.632Z,6.03
2023-05-15T22:19:33.425Z,4.70
2023-05-15T22:22:04.279Z,4.67
2023-05-15T22:24:35.374Z,4.97
2023-05-15T22:27:05.377Z,4.83
2023-05-15T22:29:35.170Z,3.72
2023-05-15T22:32:06.489Z,5.97
2023-05-15T22:34:36.343Z,7.00
2023-05-15T22:37:05.811Z,5.58
2023-05-15T22:39:35.133Z,5.37
2023-05-15T22:42:04.835Z,2.80
2023-05-15T22:44:34.032Z,5.90
2023-05-15T22:47:03.536Z,9.70
2023-05-15T22:49:33.226Z,7.65
2023-05-15T22:52:02.171Z,8.35
2023-05-15T22:54:32.118Z,5.95
2023-05-15T22:57:02.546Z,4.65
2023-05-15T22:59:32.065Z,8.73
2023-05-15T23:02:02.477Z,4.20
2023-05-15T23:04:32.050Z,8.00
2023-05-15T23:07:01.802Z,3.98
2023-05-15T23:09:31.500Z,4.72
2023-05-15T23:12:01.559Z,5.65
2023-05-15T23:14:31.772Z,6.08
2023-05-15T23:17:00.977Z,4.50
2023-05-15T23:19:31.521Z,4.65
2023-05-15T23:22:01.304Z,6.12
2023-05-15T23:24:31.548Z,5.92
2023-05-15T23:27:01.203Z,6.00
2023-05-15T23:29:31.153Z,10.18
2023-05-15T23:32:00.448Z,5.47
2023-05-15T23:34:29.711Z,7.15
2023-05-15T23:36:58.904Z,12.37
2023-05-15T23:39:27.984Z,4.75
2023-05-15T23:41:57.468Z,6.85
2023-05-15T23:44:27.308Z,6.95
2023-05-15T23:46:57.480Z,7.87
2023-05-15T23:49:26.573Z,5.55
2023-05-15T23:51:56.045Z,9.85
2023-05-15T23:54:25.826Z,4.92
2023-05-15T23:56:56.239Z,4.05
2023-05-15T23:59:26.002Z,6.30
